createdAt,value
2023-02-19T00:01:10.248Z,5.30
2023-02-19T00:03:14.309Z,5.27
2023-02-19T00:05:20.923Z,4.97
2023-02-19T00:07:23.971Z,5.40
2023-02-19T00:09:27.531Z,5.47
2023-02-19T00:11:32.917Z,5.50
2023-02-19T00:13:37.188Z,5.90
2023-02-19T00:15:40.455Z,5.97
2023-02-19T00:17:43.611Z,5.93
2023-02-19T00:19:46.516Z,6.50
2023-02-19T00:21:53.202Z,6.57
2023-02-19T00:23:58.053Z,6.17
2023-02-19T00:26:17.278Z,6.47
2023-02-19T00:28:21.174Z,6.33
2023-02-19T00:30:24.098Z,6.80
2023-02-19T00:32:27.372Z,6.60
2023-02-19T00:34:30.254Z,6.50
2023-02-19T00:36:35.899Z,6.43
2023-02-19T00:38:41.900Z,6.30
2023-02-19T00:40:44.985Z,5.80
2023-02-19T00:42:47.922Z,5.17
2023-02-19T00:44:52.474Z,6.17
2023-02-19T00:46:55.435Z,5.33
2023-02-19T00:48:59.009Z,6.07
2023-02-19T00:51:01.816Z,6.00
2023-02-19T00:53:04.900Z,5.50
2023-02-19T00:55:09.458Z,5.27
2023-02-19T00:57:12.376Z,5.23
2023-02-19T00:59:15.621Z,4.00
2023-02-19T01:01:20.176Z,3.93
2023-02-19T01:03:23.522Z,2.57
2023-02-19T01:05:26.482Z,2.40
2023-02-19T01:07:29.416Z,2.00
2023-02-19T01:09:35.899Z,2.00
2023-02-19T01:11:40.173Z,1.90
2023-02-19T01:13:43.349Z,2.00
2023-02-19T01:15:46.622Z,1.70
2023-02-19T01:17:49.619Z,1.70
2023-02-19T01:19:52.728Z,1.70
2023-02-19T01:21:55.709Z,1.77
2023-02-19T01:23:59.661Z,1.80
2023-02-19T01:26:07.226Z,1.70
2023-02-19T01:28:12.673Z,1.70
2023-02-19T01:30:15.843Z,1.83
2023-02-19T01:32:18.769Z,1.70
2023-02-19T01:34:21.745Z,2.13
2023-02-19T01:36:25.630Z,1.87
2023-02-19T01:38:29.164Z,2.00
2023-02-19T01:40:32.184Z,2.80
2023-02-19T01:42:35.164Z,2.37
2023-02-19T01:45:26.180Z,1.87
2023-02-19T01:47:30.719Z,3.20
2023-02-19T01:49:37.907Z,3.53
2023-02-19T01:51:43.327Z,3.13
2023-02-19T01:53:49.513Z,3.27
2023-02-19T01:55:57.601Z,2.57
2023-02-19T01:58:02.941Z,2.50
2023-02-19T02:00:10.193Z,1.90
2023-02-19T02:02:13.360Z,1.80
2023-02-19T02:04:19.417Z,1.60
2023-02-19T02:06:25.637Z,1.80
2023-02-19T02:08:46.927Z,1.63
2023-02-19T02:10:50.360Z,1.60
2023-02-19T02:12:57.621Z,1.80
2023-02-19T02:15:00.570Z,2.10
2023-02-19T02:17:20.226Z,1.63
2023-02-19T02:19:56.514Z,1.47
2023-02-19T02:22:19.397Z,2.47
2023-02-19T02:24:45.513Z,3.10
2023-02-19T02:27:05.283Z,3.40
2023-02-19T02:29:30.628Z,3.50
2023-02-19T02:31:39.669Z,2.00
2023-02-19T02:33:48.229Z,2.00
2023-02-19T02:35:58.926Z,2.83
2023-02-19T02:38:05.757Z,3.17
2023-02-19T02:40:11.175Z,3.10
2023-02-19T02:42:29.573Z,3.30
2023-02-19T02:44:35.987Z,3.30
2023-02-19T02:46:44.414Z,2.67
2023-02-19T02:48:53.769Z,1.87
2023-02-19T02:51:02.822Z,1.63
2023-02-19T02:53:26.947Z,1.60
2023-02-19T02:55:32.124Z,1.27
2023-02-19T02:57:35.151Z,1.30
2023-02-19T02:59:40.457Z,1.30
2023-02-19T03:02:05.196Z,1.30
2023-02-19T03:04:11.965Z,1.30
2023-02-19T03:06:17.151Z,1.40
2023-02-19T03:08:25.190Z,1.40
2023-02-19T03:10:33.368Z,1.50
2023-02-19T03:12:57.183Z,1.50
2023-02-19T03:15:22.949Z,1.50
2023-02-19T03:17:52.588Z,1.60
2023-02-19T03:19:58.353Z,1.63
2023-02-19T03:22:10.283Z,1.90
2023-02-19T03:24:33.387Z,2.00
2023-02-19T03:26:38.619Z,2.00
2023-02-19T03:29:15.539Z,1.50
2023-02-19T03:31:22.236Z,1.90
2023-02-19T03:33:30.547Z,1.60
2023-02-19T03:35:36.601Z,1.63
2023-02-19T03:37:45.044Z,1.53
2023-02-19T03:39:47.948Z,1.47
2023-02-19T03:41:58.517Z,1.60
2023-02-19T03:44:10.471Z,1.30
2023-02-19T03:46:16.472Z,1.30
2023-02-19T03:48:31.486Z,1.30
2023-02-19T03:50:41.584Z,1.43
2023-02-19T03:52:54.242Z,1.20
2023-02-19T03:55:05.018Z,1.17
2023-02-19T03:57:15.902Z,1.17
2023-02-19T03:59:22.854Z,1.03
2023-02-19T04:01:29.876Z,1.40
2023-02-19T04:03:41.613Z,1.20
2023-02-19T04:05:49.743Z,1.00
2023-02-19T04:07:56.112Z,0.90
2023-02-19T04:09:59.338Z,1.00
2023-02-19T04:12:02.803Z,1.00
2023-02-19T04:14:10.413Z,1.00
2023-02-19T04:16:18.769Z,0.80
2023-02-19T04:18:25.114Z,0.83
2023-02-19T04:20:31.865Z,0.90
2023-02-19T04:22:38.298Z,1.13
2023-02-19T04:24:45.686Z,0.80
2023-02-19T04:26:48.834Z,0.60
2023-02-19T04:28:51.811Z,0.77
2023-02-19T04:30:54.968Z,0.70
2023-02-19T04:32:58.306Z,0.77
2023-02-19T04:35:01.278Z,0.60
2023-02-19T04:37:05.952Z,0.57
2023-02-19T04:39:09.098Z,0.60
2023-02-19T04:41:12.421Z,0.60
2023-02-19T04:43:15.512Z,0.77
2023-02-19T04:45:18.597Z,0.80
2023-02-19T04:47:21.563Z,0.50
2023-02-19T04:49:24.503Z,0.60
2023-02-19T04:51:27.541Z,0.70
2023-02-19T04:53:31.928Z,0.67
2023-02-19T04:55:39.270Z,0.50
2023-02-19T04:57:42.312Z,0.90
2023-02-19T04:59:45.216Z,0.90
2023-02-19T05:01:49.672Z,0.77
2023-02-19T05:03:52.846Z,0.97
2023-02-19T05:05:55.834Z,0.70
2023-02-19T05:07:59.062Z,0.67
2023-02-19T05:10:03.467Z,1.00
2023-02-19T05:12:06.735Z,0.80
2023-02-19T05:14:09.660Z,1.03
2023-02-19T05:16:16.005Z,0.70
2023-02-19T05:18:21.883Z,1.00
2023-02-19T05:20:25.015Z,1.37
2023-02-19T05:22:30.066Z,1.00
2023-02-19T05:24:33.007Z,1.03
2023-02-19T05:26:37.708Z,1.20
2023-02-19T05:28:43.713Z,1.20
2023-02-19T05:30:47.764Z,1.23
2023-02-19T05:32:53.554Z,1.20
2023-02-19T05:34:56.550Z,1.30
2023-02-19T05:36:59.492Z,1.57
2023-02-19T05:39:02.565Z,1.50
2023-02-19T05:41:10.455Z,1.90
2023-02-19T05:43:15.298Z,1.90
2023-02-19T05:45:18.117Z,2.23
2023-02-19T05:47:21.018Z,2.00
2023-02-19T05:49:23.948Z,1.90
2023-02-19T05:51:27.940Z,2.03
2023-02-19T05:53:31.138Z,2.23
2023-02-19T05:55:36.501Z,2.70
2023-02-19T05:57:43.684Z,3.43
2023-02-19T05:59:48.174Z,2.70
2023-02-19T06:01:52.271Z,3.30
2023-02-19T06:03:57.337Z,3.47
2023-02-19T06:06:00.506Z,3.00
2023-02-19T06:08:03.331Z,3.47
2023-02-19T06:10:07.079Z,4.07
2023-02-19T06:12:10.048Z,4.37
2023-02-19T06:14:14.453Z,5.23
2023-02-19T06:16:27.497Z,4.80
2023-02-19T06:18:30.454Z,4.60
2023-02-19T06:20:33.626Z,4.90
2023-02-19T06:22:36.568Z,4.47
2023-02-19T06:24:39.462Z,4.23
2023-02-19T06:26:42.428Z,4.10
2023-02-19T06:28:45.827Z,3.77
2023-02-19T06:30:51.304Z,3.73
2023-02-19T06:32:55.823Z,4.17
2023-02-19T06:34:58.704Z,3.17
2023-02-19T06:37:01.713Z,3.47
2023-02-19T06:39:06.700Z,3.40
2023-02-19T06:41:11.130Z,2.90
2023-02-19T06:43:14.501Z,3.23
2023-02-19T06:45:17.565Z,3.20
2023-02-19T06:47:20.942Z,3.03
2023-02-19T06:49:25.243Z,3.10
2023-02-19T06:51:29.598Z,3.00
2023-02-19T06:53:32.527Z,3.40
2023-02-19T06:55:35.411Z,3.10
2023-02-19T06:57:38.269Z,3.23
2023-02-19T06:59:41.118Z,3.13
2023-02-19T07:01:44.761Z,3.10
2023-02-19T07:03:47.625Z,3.00
2023-02-19T07:05:51.790Z,2.80
2023-02-19T07:07:54.690Z,2.60
2023-02-19T07:09:57.586Z,2.70
2023-02-19T07:12:00.415Z,2.50
2023-02-19T07:14:05.348Z,3.20
2023-02-19T07:16:14.073Z,2.90
2023-02-19T07:18:17.131Z,3.40
2023-02-19T07:20:23.206Z,3.03
2023-02-19T07:22:27.447Z,3.03
2023-02-19T07:24:30.408Z,3.00
2023-02-19T07:26:33.395Z,2.90
2023-02-19T07:28:36.345Z,2.93
2023-02-19T07:30:39.295Z,3.27
2023-02-19T07:32:42.936Z,3.07
2023-02-19T07:34:45.867Z,3.13
2023-02-19T07:36:48.725Z,3.40
2023-02-19T07:38:56.402Z,3.23
2023-02-19T07:41:01.443Z,3.23
2023-02-19T07:43:04.375Z,3.17
2023-02-19T07:45:07.927Z,3.60
2023-02-19T07:47:10.937Z,3.23
2023-02-19T07:49:13.764Z,2.97
2023-02-19T07:51:19.366Z,3.37
2023-02-19T07:53:22.906Z,3.00
2023-02-19T07:55:27.390Z,3.17
2023-02-19T07:57:31.755Z,3.30
2023-02-19T07:59:35.697Z,3.33
2023-02-19T08:01:56.150Z,3.70
2023-02-19T08:03:59.243Z,3.50
2023-02-19T08:06:02.119Z,3.97
2023-02-19T08:08:16.412Z,3.70
2023-02-19T08:10:36.825Z,3.80
2023-02-19T08:12:59.968Z,4.00
2023-02-19T08:15:02.944Z,5.33
2023-02-19T08:17:05.978Z,4.03
2023-02-19T08:19:08.862Z,4.57
2023-02-19T08:21:12.289Z,4.20
2023-02-19T08:23:15.851Z,4.43
2023-02-19T08:25:19.874Z,5.20
2023-02-19T08:27:22.861Z,3.73
2023-02-19T08:29:27.482Z,3.07
2023-02-19T08:31:30.376Z,3.70
2023-02-19T08:33:33.558Z,3.37
2023-02-19T08:35:37.355Z,3.90
2023-02-19T08:37:42.448Z,3.60
2023-02-19T08:39:45.384Z,5.80
2023-02-19T08:41:48.754Z,8.53
2023-02-19T08:43:51.600Z,4.47
2023-02-19T08:45:56.664Z,3.40
2023-02-19T08:48:00.122Z,3.13
2023-02-19T08:50:04.950Z,3.30
2023-02-19T08:52:10.937Z,5.93
2023-02-19T08:54:13.893Z,3.93
2023-02-19T08:56:18.325Z,4.43
2023-02-19T08:58:21.332Z,3.77
2023-02-19T09:00:24.448Z,3.43
2023-02-19T09:02:29.151Z,3.10
2023-02-19T09:04:32.426Z,3.50
2023-02-19T09:06:35.370Z,5.37
2023-02-19T09:08:38.283Z,3.67
2023-02-19T09:10:41.595Z,3.30
2023-02-19T09:12:44.562Z,3.70
2023-02-19T09:14:47.678Z,3.85
2023-02-19T09:16:50.767Z,3.80
2023-02-19T09:18:55.054Z,4.50
2023-02-19T09:21:01.295Z,3.73
2023-02-19T09:23:04.120Z,3.97
2023-02-19T09:25:07.362Z,4.33
2023-02-19T09:27:10.747Z,4.07
2023-02-19T09:29:16.050Z,4.47
2023-02-19T09:31:19.113Z,3.93
2023-02-19T09:33:24.988Z,4.77
2023-02-19T09:35:29.452Z,4.70
2023-02-19T09:37:34.082Z,5.47
2023-02-19T09:39:37.463Z,5.00
2023-02-19T09:41:46.401Z,7.43
2023-02-19T09:43:49.551Z,4.90
2023-02-19T09:46:02.344Z,5.47
2023-02-19T09:48:06.605Z,4.77
2023-02-19T09:50:15.671Z,4.70
2023-02-19T09:52:26.656Z,15.23
2023-02-19T09:54:32.740Z,13.07
2023-02-19T09:56:36.136Z,5.17
2023-02-19T09:58:47.791Z,5.10
2023-02-19T10:00:52.040Z,4.53
2023-02-19T10:02:56.371Z,4.28
2023-02-19T10:04:59.868Z,4.43
2023-02-19T10:07:03.917Z,4.43
2023-02-19T10:09:20.016Z,5.10
2023-02-19T10:11:24.777Z,4.78
2023-02-19T10:13:32.748Z,4.23
2023-02-19T10:15:39.517Z,5.87
2023-02-19T10:17:42.427Z,4.53
2023-02-19T10:19:45.319Z,3.90
2023-02-19T10:21:48.298Z,4.77
2023-02-19T10:23:55.721Z,4.30
2023-02-19T10:26:01.769Z,4.23
2023-02-19T10:28:05.587Z,3.80
2023-02-19T10:30:15.398Z,3.77
2023-02-19T10:32:23.701Z,3.70
2023-02-19T10:34:26.584Z,3.40
2023-02-19T10:36:32.810Z,3.93
2023-02-19T10:38:37.922Z,3.40
2023-02-19T10:40:45.833Z,3.20
2023-02-19T10:42:51.939Z,3.10
2023-02-19T10:44:58.732Z,3.20
2023-02-19T10:47:02.197Z,3.87
2023-02-19T10:49:07.128Z,3.35
2023-02-19T10:51:21.519Z,3.87
2023-02-19T10:53:35.543Z,4.03
2023-02-19T10:55:40.674Z,4.13
2023-02-19T10:57:43.696Z,4.00
2023-02-19T10:59:52.719Z,3.90
2023-02-19T11:01:59.717Z,5.10
2023-02-19T11:04:17.963Z,4.07
2023-02-19T11:06:26.626Z,4.15
2023-02-19T11:08:30.207Z,4.10
2023-02-19T11:10:38.259Z,4.43
2023-02-19T11:12:48.636Z,6.07
2023-02-19T11:14:54.426Z,5.57
2023-02-19T11:16:59.069Z,4.57
2023-02-19T11:19:01.915Z,5.27
2023-02-19T11:21:07.348Z,5.37
2023-02-19T11:23:26.818Z,5.07
2023-02-19T11:25:30.231Z,5.10
2023-02-19T11:27:33.814Z,5.00
2023-02-19T11:29:39.708Z,5.18
2023-02-19T11:31:44.253Z,5.35
2023-02-19T11:33:51.705Z,5.10
2023-02-19T11:36:12.675Z,5.75
2023-02-19T11:38:18.842Z,5.25
2023-02-19T11:40:25.746Z,5.10
2023-02-19T11:42:39.671Z,5.15
2023-02-19T11:44:56.181Z,5.38
2023-02-19T11:47:33.340Z,5.78
2023-02-19T11:49:46.565Z,5.60
2023-02-19T11:52:19.382Z,6.38
2023-02-19T11:54:45.130Z,5.65
2023-02-19T11:56:52.148Z,6.97
2023-02-19T11:59:05.934Z,6.50
2023-02-19T12:01:20.987Z,6.35
2023-02-19T12:03:44.501Z,6.07
2023-02-19T12:06:14.706Z,5.93
2023-02-19T12:08:50.512Z,6.05
2023-02-19T12:11:11.868Z,5.28
2023-02-19T12:13:25.478Z,5.18
2023-02-19T12:15:58.987Z,5.63
2023-02-19T12:18:34.431Z,4.93
2023-02-19T12:20:45.847Z,5.20
2023-02-19T12:23:03.704Z,5.18
2023-02-19T12:25:47.066Z,5.10
2023-02-19T12:28:08.911Z,5.20
2023-02-19T12:30:43.917Z,4.80
2023-02-19T12:33:03.751Z,4.72
2023-02-19T12:35:33.391Z,4.53
2023-02-19T12:37:49.186Z,3.92
2023-02-19T12:40:01.790Z,3.78
2023-02-19T12:42:12.629Z,3.75
2023-02-19T12:44:20.497Z,3.45
2023-02-19T12:46:30.761Z,3.90
2023-02-19T12:48:39.910Z,3.85
2023-02-19T12:50:45.423Z,3.85
2023-02-19T12:52:53.194Z,3.70
2023-02-19T12:55:00.697Z,4.15
2023-02-19T12:57:07.100Z,3.88
2023-02-19T12:59:15.877Z,4.50
2023-02-19T13:01:23.476Z,4.35
2023-02-19T13:03:32.555Z,4.00
2023-02-19T13:05:44.814Z,4.33
2023-02-19T13:07:58.204Z,4.15
2023-02-19T13:10:09.206Z,5.80
2023-02-19T13:12:15.904Z,4.73
2023-02-19T13:14:25.089Z,5.40
2023-02-19T13:16:33.105Z,7.30
2023-02-19T13:18:42.671Z,4.47
2023-02-19T13:20:48.633Z,3.72
2023-02-19T13:23:31.630Z,3.70
2023-02-19T13:25:44.998Z,3.80
2023-02-19T13:28:01.444Z,3.60
2023-02-19T13:30:16.396Z,4.10
2023-02-19T13:32:35.517Z,4.45
2023-02-19T13:34:57.089Z,4.60
2023-02-19T13:37:01.044Z,4.60
2023-02-19T13:39:08.245Z,4.70
2023-02-19T13:41:26.544Z,4.10
2023-02-19T13:43:34.755Z,3.90
2023-02-19T13:45:41.639Z,4.55
2023-02-19T13:48:00.858Z,4.82
2023-02-19T13:50:10.518Z,6.07
2023-02-19T13:52:40.574Z,6.95
2023-02-19T13:54:44.777Z,4.82
2023-02-19T13:56:47.692Z,4.30
2023-02-19T13:58:55.793Z,4.22
2023-02-19T14:01:00.917Z,5.90
2023-02-19T14:03:28.278Z,4.68
2023-02-19T14:05:59.584Z,5.03
2023-02-19T14:08:02.613Z,4.10
2023-02-19T14:10:14.070Z,3.20
2023-02-19T14:12:21.516Z,5.45
2023-02-19T14:14:29.757Z,3.72
2023-02-19T14:16:54.639Z,3.90
2023-02-19T14:18:57.468Z,3.50
2023-02-19T14:21:14.859Z,3.90
2023-02-19T14:23:23.663Z,4.00
2023-02-19T14:25:52.019Z,3.70
2023-02-19T14:27:56.190Z,4.80
2023-02-19T14:29:59.727Z,4.68
2023-02-19T14:32:06.606Z,4.20
2023-02-19T14:34:22.224Z,4.50
2023-02-19T14:36:33.074Z,4.50
2023-02-19T14:38:39.879Z,4.90
2023-02-19T14:40:46.130Z,4.80
2023-02-19T14:42:51.241Z,4.80
2023-02-19T14:44:57.847Z,5.20
2023-02-19T14:47:05.097Z,5.50
2023-02-19T14:49:16.036Z,5.30
2023-02-19T14:51:27.819Z,5.25
2023-02-19T14:53:31.732Z,5.47
2023-02-19T14:55:37.751Z,5.20
2023-02-19T14:57:43.353Z,6.38
2023-02-19T14:59:59.181Z,5.57
2023-02-19T15:02:04.946Z,5.35
2023-02-19T15:04:20.672Z,4.53
2023-02-19T15:06:24.414Z,3.95
2023-02-19T15:08:34.092Z,3.20
2023-02-19T15:10:44.275Z,3.45
2023-02-19T15:12:50.228Z,3.80
2023-02-19T15:14:58.030Z,3.33
2023-02-19T15:17:04.006Z,3.40
2023-02-19T15:19:09.688Z,3.25
2023-02-19T15:21:23.291Z,3.30
2023-02-19T15:23:27.980Z,3.15
2023-02-19T15:25:34.856Z,3.60
2023-02-19T15:28:06.359Z,3.15
2023-02-19T15:30:21.423Z,3.20
2023-02-19T15:32:27.036Z,3.40
2023-02-19T15:34:31.963Z,3.40
2023-02-19T15:36:35.906Z,2.93
2023-02-19T15:38:38.812Z,3.13
2023-02-19T15:40:45.712Z,3.70
2023-02-19T15:42:48.892Z,3.20
2023-02-19T15:44:56.938Z,3.43
2023-02-19T15:47:09.626Z,3.40
2023-02-19T15:49:18.442Z,2.83
2023-02-19T15:51:25.444Z,2.72
2023-02-19T15:53:33.963Z,2.40
2023-02-19T15:55:44.159Z,2.00
2023-02-19T15:57:53.415Z,1.83
2023-02-19T16:00:00.804Z,1.80
2023-02-19T16:02:05.988Z,1.90
2023-02-19T16:04:13.642Z,1.83
2023-02-19T16:06:18.512Z,2.03
2023-02-19T16:08:31.619Z,1.83
2023-02-19T16:10:34.509Z,1.63
2023-02-19T16:12:37.298Z,1.87
2023-02-19T16:14:41.413Z,1.90
2023-02-19T16:16:45.835Z,2.20
2023-02-19T16:18:52.066Z,2.00
2023-02-19T16:20:54.872Z,1.90
2023-02-19T16:23:00.794Z,1.90
2023-02-19T16:25:06.334Z,2.27
2023-02-19T16:27:09.929Z,1.93
2023-02-19T16:29:21.638Z,2.10
2023-02-19T16:31:25.419Z,2.20
2023-02-19T16:33:37.191Z,2.17
2023-02-19T16:35:41.396Z,2.00
2023-02-19T16:37:58.523Z,2.30
2023-02-19T16:40:37.761Z,2.40
2023-02-19T16:43:26.812Z,2.00
2023-02-19T16:45:29.615Z,2.60
2023-02-19T16:47:35.133Z,2.40
2023-02-19T16:49:38.134Z,3.60
2023-02-19T16:51:43.961Z,2.87
2023-02-19T16:53:46.745Z,2.20
2023-02-19T16:55:49.680Z,2.23
2023-02-19T16:57:52.776Z,2.00
2023-02-19T16:59:55.793Z,2.23
2023-02-19T17:01:58.719Z,2.10
2023-02-19T17:04:05.848Z,2.13
2023-02-19T17:06:09.120Z,2.13
2023-02-19T17:08:27.099Z,2.27
2023-02-19T17:10:30.015Z,2.37
2023-02-19T17:12:32.909Z,2.87
2023-02-19T17:14:35.877Z,5.43
2023-02-19T17:16:40.660Z,4.23
2023-02-19T17:18:43.658Z,4.27
2023-02-19T17:20:51.578Z,2.87
2023-02-19T17:22:54.360Z,2.80
2023-02-19T17:24:58.466Z,3.03
2023-02-19T17:27:01.370Z,3.37
2023-02-19T17:29:07.149Z,3.60
2023-02-19T17:31:11.271Z,3.50
2023-02-19T17:33:14.531Z,3.83
2023-02-19T17:35:17.649Z,3.50
2023-02-19T17:37:20.547Z,3.43
2023-02-19T17:39:24.074Z,3.60
2023-02-19T17:41:28.372Z,3.60
2023-02-19T17:43:31.314Z,3.40
2023-02-19T17:45:34.495Z,4.20
2023-02-19T17:47:37.370Z,3.93
2023-02-19T17:49:40.180Z,4.10
2023-02-19T17:51:43.057Z,4.10
2023-02-19T17:53:46.447Z,3.77
2023-02-19T17:55:49.676Z,4.80
2023-02-19T17:57:53.867Z,4.07
2023-02-19T17:59:56.675Z,5.10
2023-02-19T18:01:59.502Z,4.70
2023-02-19T18:04:04.635Z,4.90
2023-02-19T18:06:08.473Z,4.37
2023-02-19T18:08:11.476Z,4.50
2023-02-19T18:10:15.446Z,4.37
2023-02-19T18:12:18.316Z,4.20
2023-02-19T18:14:22.589Z,4.20
2023-02-19T18:16:25.508Z,4.63
2023-02-19T18:18:28.286Z,4.60
2023-02-19T18:20:31.522Z,5.70
2023-02-19T18:22:34.311Z,21.63
2023-02-19T18:24:37.337Z,6.53
2023-02-19T18:26:41.039Z,6.50
2023-02-19T18:28:43.947Z,8.60
2023-02-19T18:30:48.383Z,8.43
2023-02-19T18:32:51.948Z,7.33
2023-02-19T18:34:57.123Z,6.10
2023-02-19T18:36:59.978Z,6.57
2023-02-19T18:39:02.699Z,6.87
2023-02-19T18:41:05.839Z,16.37
2023-02-19T18:43:08.782Z,17.73
2023-02-19T18:45:11.820Z,6.77
2023-02-19T18:47:16.767Z,6.33
2023-02-19T18:49:20.139Z,6.47
2023-02-19T18:51:23.504Z,6.90
2023-02-19T18:53:26.267Z,6.10
2023-02-19T18:55:29.069Z,6.23
2023-02-19T18:57:31.981Z,6.20
2023-02-19T18:59:34.767Z,6.40
2023-02-19T19:01:37.657Z,6.60
2023-02-19T19:03:43.828Z,6.33
2023-02-19T19:05:46.652Z,6.80
2023-02-19T19:07:49.672Z,7.70
2023-02-19T19:09:52.471Z,6.53
2023-02-19T19:11:55.333Z,6.23
2023-02-19T19:13:58.199Z,6.50
2023-02-19T19:16:01.318Z,6.30
2023-02-19T19:18:04.204Z,6.43
2023-02-19T19:20:10.937Z,6.17
2023-02-19T19:22:14.959Z,5.83
2023-02-19T19:24:18.687Z,6.07
2023-02-19T19:26:21.429Z,6.30
2023-02-19T19:28:24.668Z,6.23
2023-02-19T19:30:27.460Z,6.50
2023-02-19T19:32:31.212Z,6.33
2023-02-19T19:34:34.040Z,6.03
2023-02-19T19:36:38.770Z,6.33
2023-02-19T19:38:42.115Z,6.30
2023-02-19T19:40:45.185Z,6.10
2023-02-19T19:42:48.029Z,6.47
2023-02-19T19:44:51.009Z,5.73
2023-02-19T19:46:55.295Z,5.93
2023-02-19T19:48:58.183Z,6.40
2023-02-19T19:51:01.126Z,5.80
2023-02-19T19:53:05.247Z,5.67
2023-02-19T19:55:10.853Z,7.03
2023-02-19T19:57:14.283Z,6.90
2023-02-19T19:59:18.766Z,6.10
2023-02-19T20:01:22.907Z,6.60
2023-02-19T20:03:25.781Z,6.80
2023-02-19T20:05:28.778Z,6.73
2023-02-19T20:07:31.724Z,6.50
2023-02-19T20:09:36.084Z,5.87
2023-02-19T20:11:45.559Z,5.83
2023-02-19T20:13:48.450Z,6.27
2023-02-19T20:15:51.586Z,6.30
2023-02-19T20:17:54.922Z,6.17
2023-02-19T20:19:57.717Z,5.73
2023-02-19T20:22:00.731Z,6.00
2023-02-19T20:24:03.738Z,6.07
2023-02-19T20:26:08.442Z,6.10
2023-02-19T20:28:11.299Z,6.43
2023-02-19T20:30:16.536Z,6.00
2023-02-19T20:32:19.391Z,6.10
2023-02-19T20:34:23.925Z,6.07
2023-02-19T20:36:29.356Z,7.23
2023-02-19T20:38:32.178Z,6.57
2023-02-19T20:40:35.329Z,6.73
2023-02-19T20:42:39.910Z,6.90
2023-02-19T20:44:44.274Z,6.47
2023-02-19T20:46:49.298Z,7.40
2023-02-19T20:48:52.436Z,7.20
2023-02-19T20:50:59.181Z,7.57
2023-02-19T20:53:02.295Z,8.50
2023-02-19T20:55:05.760Z,7.87
2023-02-19T20:57:08.709Z,8.50
2023-02-19T20:59:12.950Z,8.27
2023-02-19T21:01:16.909Z,9.33
2023-02-19T21:03:21.693Z,9.70
2023-02-19T21:05:24.543Z,9.50
2023-02-19T21:07:28.465Z,10.27
2023-02-19T21:09:32.054Z,10.83
2023-02-19T21:11:34.953Z,10.77
2023-02-19T21:13:37.840Z,11.07
2023-02-19T21:15:42.196Z,12.23
2023-02-19T21:17:45.932Z,11.63
2023-02-19T21:19:50.295Z,12.17
2023-02-19T21:21:53.201Z,12.17
2023-02-19T21:23:57.663Z,12.20
2023-02-19T21:26:03.462Z,12.87
2023-02-19T21:28:08.975Z,11.70
2023-02-19T21:30:12.275Z,12.17
2023-02-19T21:32:16.701Z,12.43
2023-02-19T21:34:21.328Z,10.87
2023-02-19T21:36:24.147Z,11.83
2023-02-19T21:38:26.935Z,10.63
2023-02-19T21:40:31.812Z,11.03
2023-02-19T21:42:34.761Z,11.90
2023-02-19T21:44:37.729Z,11.03
2023-02-19T21:46:42.455Z,12.10
2023-02-19T21:48:48.724Z,12.43
2023-02-19T21:50:51.503Z,11.00
2023-02-19T21:52:55.082Z,11.97
2023-02-19T21:54:58.156Z,12.50
2023-02-19T21:57:03.673Z,11.90
2023-02-19T21:59:06.816Z,12.17
2023-02-19T22:01:09.664Z,12.53
2023-02-19T22:03:16.318Z,11.80
2023-02-19T22:05:20.689Z,13.00
2023-02-19T22:07:23.530Z,12.97
2023-02-19T22:09:26.364Z,13.77
2023-02-19T22:11:29.236Z,13.33
2023-02-19T22:13:32.112Z,12.97
2023-02-19T22:15:34.884Z,13.80
2023-02-19T22:17:38.301Z,13.43
2023-02-19T22:19:41.164Z,13.30
2023-02-19T22:21:46.220Z,13.97
2023-02-19T22:23:50.936Z,14.07
2023-02-19T22:25:53.692Z,14.83
2023-02-19T22:27:56.893Z,13.93
2023-02-19T22:30:00.669Z,15.47
2023-02-19T22:32:03.692Z,14.43
2023-02-19T22:34:06.623Z,15.43
2023-02-19T22:36:18.627Z,14.33
2023-02-19T22:38:22.735Z,14.87
2023-02-19T22:40:26.762Z,14.43
2023-02-19T22:42:29.881Z,15.37
2023-02-19T22:44:34.253Z,15.20
2023-02-19T22:46:37.528Z,14.97
2023-02-19T22:48:40.384Z,15.57
2023-02-19T22:50:43.302Z,16.87
2023-02-19T22:52:46.218Z,15.67
2023-02-19T22:54:53.083Z,15.90
2023-02-19T22:56:56.342Z,15.57
2023-02-19T22:58:59.484Z,16.73
2023-02-19T23:01:02.355Z,16.37
2023-02-19T23:03:05.389Z,15.37
2023-02-19T23:05:08.595Z,15.57
2023-02-19T23:07:11.458Z,16.00
2023-02-19T23:09:19.062Z,15.83
2023-02-19T23:11:26.885Z,15.77
2023-02-19T23:13:29.643Z,15.27
2023-02-19T23:15:32.613Z,15.80
2023-02-19T23:17:35.409Z,15.80
2023-02-19T23:19:38.152Z,15.23
2023-02-19T23:21:42.176Z,15.33
2023-02-19T23:23:46.274Z,16.37
2023-02-19T23:25:49.257Z,15.77
2023-02-19T23:27:53.625Z,16.90
2023-02-19T23:29:56.882Z,16.53
2023-02-19T23:32:00.685Z,16.40
2023-02-19T23:34:04.298Z,16.33
2023-02-19T23:36:08.290Z,16.30
2023-02-19T23:38:11.023Z,16.20
2023-02-19T23:40:17.196Z,17.43
2023-02-19T23:42:19.996Z,15.03
2023-02-19T23:44:26.073Z,15.07
2023-02-19T23:46:29.158Z,15.80
2023-02-19T23:48:32.104Z,15.17
2023-02-19T23:50:34.888Z,16.27
2023-02-19T23:52:37.729Z,16.00
2023-02-19T23:54:40.738Z,16.83
2023-02-19T23:56:43.612Z,14.47
2023-02-19T23:58:46.414Z,15.10
